createdAt,value
2022-12-03T00:01:53.218Z,11.67
2022-12-03T00:06:04.898Z,11.30
2022-12-03T00:10:18.064Z,11.10
2022-12-03T00:14:29.630Z,11.93
2022-12-03T00:18:41.133Z,11.83
2022-12-03T00:22:52.663Z,12.30
2022-12-03T00:27:04.097Z,11.90
2022-12-03T00:31:15.956Z,12.10
2022-12-03T00:35:27.482Z,12.50
2022-12-03T00:39:38.915Z,13.03
2022-12-03T00:43:50.425Z,12.60
2022-12-03T00:48:01.994Z,12.07
2022-12-03T00:52:13.599Z,12.67
2022-12-03T00:56:25.097Z,13.13
2022-12-03T01:00:37.119Z,13.30
2022-12-03T01:04:48.683Z,13.63
2022-12-03T01:09:00.407Z,13.23
2022-12-03T01:13:12.019Z,13.57
2022-12-03T01:17:23.591Z,13.13
2022-12-03T01:21:35.204Z,12.50
2022-12-03T01:25:46.689Z,13.50
2022-12-03T01:29:58.304Z,13.03
2022-12-03T01:34:10.033Z,13.77
2022-12-03T01:38:21.527Z,14.07
2022-12-03T01:42:36.745Z,13.70
2022-12-03T01:46:49.047Z,14.37
2022-12-03T01:51:00.793Z,13.63
2022-12-03T01:55:21.097Z,13.33
2022-12-03T01:59:36.212Z,14.47
2022-12-03T02:03:47.975Z,14.10
2022-12-03T02:08:00.631Z,13.90
2022-12-03T02:12:14.641Z,12.83
2022-12-03T02:16:26.461Z,13.90
2022-12-03T02:20:47.667Z,13.63
2022-12-03T02:24:59.305Z,13.77
2022-12-03T02:29:11.328Z,13.43
2022-12-03T02:33:23.029Z,13.97
2022-12-03T02:37:37.318Z,14.37
2022-12-03T02:42:07.541Z,13.93
2022-12-03T02:46:20.773Z,14.87
2022-12-03T02:50:35.928Z,14.90
2022-12-03T02:54:48.432Z,13.63
2022-12-03T02:59:03.089Z,13.33
2022-12-03T03:03:16.910Z,14.20
2022-12-03T03:07:28.717Z,14.63
2022-12-03T03:11:40.365Z,13.10
2022-12-03T03:15:52.151Z,13.77
2022-12-03T03:20:06.572Z,14.17
2022-12-03T03:24:18.531Z,13.97
2022-12-03T03:28:34.594Z,13.93
2022-12-03T03:32:46.194Z,13.33
2022-12-03T03:36:58.079Z,13.20
2022-12-03T03:41:11.345Z,12.53
2022-12-03T03:45:28.726Z,12.70
2022-12-03T03:49:42.058Z,13.17
2022-12-03T03:53:54.169Z,12.33
2022-12-03T03:58:06.061Z,10.93
2022-12-03T04:02:24.652Z,11.33
2022-12-03T04:06:36.225Z,11.10
2022-12-03T04:11:06.286Z,11.20
2022-12-03T04:15:17.843Z,10.50
2022-12-03T04:19:29.360Z,10.40
2022-12-03T04:23:40.919Z,10.87
2022-12-03T04:28:11.146Z,11.93
2022-12-03T04:32:41.356Z,11.47
2022-12-03T04:36:52.973Z,11.77
2022-12-03T04:41:04.553Z,11.43
2022-12-03T04:45:16.177Z,11.93
2022-12-03T04:49:27.805Z,11.70
2022-12-03T04:53:44.726Z,12.03
2022-12-03T04:57:57.776Z,10.80
2022-12-03T05:02:09.418Z,12.37
2022-12-03T05:06:21.215Z,11.43
2022-12-03T05:10:32.793Z,11.97
2022-12-03T05:14:44.320Z,13.47
2022-12-03T05:18:55.954Z,13.30
2022-12-03T05:23:09.309Z,13.53
2022-12-03T05:27:23.845Z,14.23
2022-12-03T05:31:35.914Z,13.93
2022-12-03T05:35:48.157Z,12.83
2022-12-03T05:39:59.720Z,14.93
2022-12-03T05:44:13.222Z,14.00
2022-12-03T05:48:27.732Z,14.13
2022-12-03T05:52:39.308Z,13.73
2022-12-03T05:56:50.831Z,14.17
2022-12-03T06:01:02.397Z,14.10
2022-12-03T06:05:15.580Z,13.77
2022-12-03T06:09:27.154Z,14.13
2022-12-03T06:13:38.724Z,14.00
2022-12-03T06:17:50.336Z,12.67
2022-12-03T06:22:01.955Z,12.93
2022-12-03T06:26:14.958Z,12.90
2022-12-03T06:30:26.512Z,12.83
2022-12-03T06:34:38.139Z,11.90
2022-12-03T06:38:49.707Z,12.50
2022-12-03T06:43:01.287Z,11.10
2022-12-03T06:47:13.006Z,11.90
2022-12-03T06:51:24.568Z,11.70
2022-12-03T06:55:36.285Z,11.57
2022-12-03T06:59:47.875Z,12.30
2022-12-03T07:03:59.500Z,12.17
2022-12-03T07:08:11.152Z,12.07
2022-12-03T07:12:22.844Z,11.93
2022-12-03T07:16:38.637Z,13.27
2022-12-03T07:20:50.184Z,14.77
2022-12-03T07:25:01.882Z,14.87
2022-12-03T07:29:13.457Z,15.33
2022-12-03T07:33:24.967Z,14.70
2022-12-03T07:37:36.725Z,15.07
2022-12-03T07:41:48.303Z,14.97
2022-12-03T07:45:59.847Z,16.07
2022-12-03T07:50:12.591Z,16.70
2022-12-03T07:54:24.736Z,16.63
2022-12-03T07:58:36.404Z,17.83
2022-12-03T08:02:47.989Z,17.83
2022-12-03T08:06:59.540Z,17.50
2022-12-03T08:11:14.294Z,18.10
2022-12-03T08:15:31.168Z,18.77
2022-12-03T08:19:48.087Z,17.03
2022-12-03T08:24:09.723Z,17.90
2022-12-03T08:28:23.993Z,17.67
2022-12-03T08:32:36.085Z,17.73
2022-12-03T08:36:51.797Z,19.67
2022-12-03T08:41:07.673Z,16.20
2022-12-03T08:45:29.715Z,19.23
2022-12-03T08:49:44.854Z,17.73
2022-12-03T08:54:07.467Z,18.27
2022-12-03T08:58:33.291Z,16.63
2022-12-03T09:02:47.794Z,16.37
2022-12-03T09:06:59.501Z,16.67
2022-12-03T09:11:11.179Z,17.10
2022-12-03T09:15:22.772Z,16.83
2022-12-03T09:19:34.703Z,17.80
2022-12-03T09:23:46.233Z,16.30
2022-12-03T09:27:57.790Z,15.67
2022-12-03T09:32:13.674Z,16.20
2022-12-03T09:36:28.424Z,17.57
2022-12-03T09:40:40.120Z,16.47
2022-12-03T09:44:52.428Z,16.80
2022-12-03T09:49:12.303Z,15.73
2022-12-03T09:53:27.876Z,16.43
2022-12-03T09:57:39.662Z,17.20
2022-12-03T10:01:52.986Z,15.37
2022-12-03T10:06:04.700Z,13.77
2022-12-03T10:10:25.347Z,13.67
2022-12-03T10:14:36.882Z,13.93
2022-12-03T10:18:51.402Z,13.00
2022-12-03T10:23:03.018Z,12.77
2022-12-03T10:27:23.700Z,12.63
2022-12-03T10:31:36.512Z,12.80
2022-12-03T10:35:48.116Z,14.07
2022-12-03T10:40:12.133Z,12.87
2022-12-03T10:44:25.977Z,13.03
2022-12-03T10:48:38.336Z,14.27
2022-12-03T10:52:49.927Z,13.90
2022-12-03T10:57:02.176Z,13.33
2022-12-03T11:01:17.656Z,14.30
2022-12-03T11:05:29.302Z,12.33
2022-12-03T11:09:44.681Z,12.67
2022-12-03T11:14:03.268Z,13.67
2022-12-03T11:18:36.236Z,14.33
2022-12-03T11:22:51.429Z,12.93
2022-12-03T11:27:02.889Z,13.13
2022-12-03T11:31:33.690Z,13.17
2022-12-03T11:36:31.568Z,11.80
2022-12-03T11:41:23.776Z,11.80
2022-12-03T11:45:38.032Z,11.67
2022-12-03T11:49:49.700Z,12.70
2022-12-03T11:54:01.249Z,12.07
2022-12-03T11:58:30.446Z,11.73
2022-12-03T12:02:42.771Z,12.00
2022-12-03T12:06:54.326Z,21.20
2022-12-03T12:11:27.776Z,16.33
2022-12-03T12:15:40.438Z,20.03
2022-12-03T12:20:27.847Z,15.37
2022-12-03T12:24:45.632Z,14.17
2022-12-03T12:29:02.403Z,14.47
2022-12-03T12:33:19.659Z,13.83
2022-12-03T12:37:34.025Z,13.77
2022-12-03T12:41:48.944Z,14.07
2022-12-03T12:46:39.097Z,13.63
2022-12-03T12:50:44.645Z,16.03
2022-12-03T12:54:59.080Z,15.63
2022-12-03T12:59:18.504Z,16.03
2022-12-03T13:03:34.974Z,16.77
2022-12-03T13:07:46.640Z,17.97
2022-12-03T13:12:01.232Z,17.47
2022-12-03T13:16:27.992Z,17.57
2022-12-03T13:20:39.727Z,18.73
2022-12-03T13:24:54.307Z,17.73
2022-12-03T13:29:13.554Z,17.83
2022-12-03T13:33:27.957Z,16.63
2022-12-03T13:37:39.500Z,16.50
2022-12-03T13:42:09.475Z,16.93
2022-12-03T13:46:21.036Z,15.97
2022-12-03T13:50:40.043Z,15.83
2022-12-03T13:54:56.727Z,15.67
2022-12-03T13:59:08.889Z,16.63
2022-12-03T14:03:21.095Z,15.17
2022-12-03T14:07:32.590Z,14.30
2022-12-03T14:12:02.790Z,15.77
2022-12-03T14:16:14.328Z,16.13
2022-12-03T14:20:34.944Z,15.40
2022-12-03T14:24:46.813Z,14.87
2022-12-03T14:28:58.287Z,14.90
2022-12-03T14:33:09.885Z,16.57
2022-12-03T14:37:21.367Z,15.20
2022-12-03T14:41:51.497Z,16.07
2022-12-03T14:46:03.083Z,15.83
2022-12-03T14:50:30.110Z,19.35
2022-12-03T14:54:42.766Z,16.37
2022-12-03T14:58:54.436Z,18.00
2022-12-03T15:03:06.015Z,19.63
2022-12-03T15:07:17.492Z,16.77
2022-12-03T15:11:28.960Z,17.27
2022-12-03T15:15:40.444Z,16.87
2022-12-03T15:19:52.209Z,17.00
2022-12-03T15:24:04.151Z,16.27
2022-12-03T15:28:15.616Z,15.63
2022-12-03T15:32:27.059Z,16.73
2022-12-03T15:36:38.548Z,15.53
2022-12-03T15:40:50.224Z,15.60
2022-12-03T15:45:01.690Z,16.73
2022-12-03T15:49:13.198Z,17.97
2022-12-03T15:53:24.676Z,17.33
2022-12-03T15:57:36.301Z,17.87
2022-12-03T16:01:47.782Z,19.83
2022-12-03T16:05:59.811Z,19.43
2022-12-03T16:10:11.784Z,17.27
2022-12-03T16:14:23.268Z,18.23
2022-12-03T16:18:34.803Z,18.07
2022-12-03T16:22:46.242Z,19.67
2022-12-03T16:26:57.717Z,17.77
2022-12-03T16:31:09.231Z,19.97
2022-12-03T16:35:23.170Z,17.37
2022-12-03T16:39:34.603Z,18.57
2022-12-03T16:43:48.348Z,18.47
2022-12-03T16:48:01.430Z,18.37
2022-12-03T16:52:12.882Z,17.73
2022-12-03T16:56:24.321Z,19.10
2022-12-03T17:00:35.912Z,20.30
2022-12-03T17:04:47.379Z,17.97
2022-12-03T17:08:59.044Z,18.60
2022-12-03T17:13:11.016Z,19.60
2022-12-03T17:17:48.049Z,21.30
2022-12-03T17:21:59.795Z,21.03
2022-12-03T17:26:11.265Z,20.23
2022-12-03T17:30:23.081Z,20.77
2022-12-03T17:34:34.591Z,20.53
2022-12-03T17:38:46.066Z,21.93
2022-12-03T17:42:57.581Z,20.77
2022-12-03T17:47:10.723Z,21.67
2022-12-03T17:51:22.267Z,23.30
2022-12-03T17:55:41.113Z,23.63
2022-12-03T17:59:57.345Z,22.57
2022-12-03T18:04:10.393Z,23.50
2022-12-03T18:08:21.955Z,23.47
2022-12-03T18:12:33.640Z,23.27
2022-12-03T18:16:45.119Z,23.33
2022-12-03T18:21:01.283Z,22.30
2022-12-03T18:25:13.291Z,22.97
2022-12-03T18:29:26.117Z,22.23
2022-12-03T18:33:37.546Z,24.17
2022-12-03T18:37:50.964Z,21.73
2022-12-03T18:42:14.492Z,22.20
2022-12-03T18:46:51.817Z,22.30
2022-12-03T18:50:57.459Z,20.80
2022-12-03T18:55:17.355Z,22.83
2022-12-03T18:59:28.803Z,21.33
2022-12-03T19:03:40.264Z,21.90
2022-12-03T19:07:53.722Z,21.80
2022-12-03T19:12:11.267Z,20.47
2022-12-03T19:16:25.841Z,20.83
2022-12-03T19:20:40.314Z,21.53
2022-12-03T19:24:51.863Z,20.67
2022-12-03T19:29:03.645Z,20.43
2022-12-03T19:33:18.023Z,21.23
2022-12-03T19:37:32.330Z,20.83
2022-12-03T19:41:44.644Z,20.40
2022-12-03T19:45:56.229Z,20.47
2022-12-03T19:50:08.612Z,20.60
2022-12-03T19:54:20.075Z,20.37
2022-12-03T19:58:31.670Z,19.90
2022-12-03T20:02:43.203Z,19.77
2022-12-03T20:06:54.768Z,20.83
2022-12-03T20:11:17.136Z,21.60
2022-12-03T20:15:29.098Z,19.70
2022-12-03T20:19:40.596Z,19.73
2022-12-03T20:23:52.179Z,21.10
2022-12-03T20:28:03.812Z,23.67
2022-12-03T20:32:15.633Z,21.57
2022-12-03T20:36:28.715Z,20.97
2022-12-03T20:40:40.193Z,20.97
2022-12-03T20:44:52.990Z,18.53
2022-12-03T20:49:04.735Z,21.67
2022-12-03T20:53:24.676Z,20.83
2022-12-03T20:57:36.530Z,19.83
2022-12-03T21:01:48.091Z,22.47
2022-12-03T21:06:01.394Z,20.00
2022-12-03T21:10:32.814Z,21.17
2022-12-03T21:14:44.348Z,22.63
2022-12-03T21:18:56.000Z,21.53
2022-12-03T21:23:08.163Z,19.37
2022-12-03T21:27:21.806Z,22.77
2022-12-03T21:31:35.384Z,21.27
2022-12-03T21:35:46.844Z,22.23
2022-12-03T21:39:58.341Z,23.33
2022-12-03T21:44:10.312Z,22.60
2022-12-03T21:48:22.293Z,22.70
2022-12-03T21:52:34.875Z,21.67
2022-12-03T21:56:46.402Z,22.13
2022-12-03T22:00:58.004Z,22.17
2022-12-03T22:05:10.786Z,22.63
2022-12-03T22:09:26.522Z,23.67
2022-12-03T22:13:39.736Z,23.80
2022-12-03T22:17:51.186Z,21.80
2022-12-03T22:22:02.685Z,23.97
2022-12-03T22:26:16.176Z,23.53
2022-12-03T22:30:27.692Z,24.30
2022-12-03T22:34:40.867Z,23.90
2022-12-03T22:38:53.038Z,24.60
2022-12-03T22:43:29.564Z,24.17
2022-12-03T22:47:41.011Z,25.43
2022-12-03T22:51:52.495Z,23.87
2022-12-03T22:56:04.087Z,24.03
2022-12-03T23:00:28.907Z,24.10
2022-12-03T23:04:40.372Z,24.10
2022-12-03T23:08:52.241Z,25.20
2022-12-03T23:13:05.885Z,22.27
2022-12-03T23:17:17.407Z,23.83
2022-12-03T23:21:33.462Z,24.93
2022-12-03T23:25:56.709Z,24.93
2022-12-03T23:30:09.206Z,24.97
2022-12-03T23:34:20.881Z,23.43
2022-12-03T23:38:32.515Z,24.77
2022-12-03T23:42:44.080Z,24.90
2022-12-03T23:46:55.680Z,25.27
2022-12-03T23:51:12.815Z,24.03
2022-12-03T23:55:24.454Z,25.07
2022-12-03T23:59:36.085Z,25.90
